createdAt,value
2023-02-28T00:01:18.066Z,10.17
2023-02-28T00:03:41.668Z,10.80
2023-02-28T00:06:06.027Z,11.63
2023-02-28T00:08:29.383Z,10.80
2023-02-28T00:10:52.649Z,8.67
2023-02-28T00:13:17.668Z,9.67
2023-02-28T00:15:40.917Z,11.13
2023-02-28T00:18:04.733Z,10.17
2023-02-28T00:20:28.212Z,15.10
2023-02-28T00:22:54.180Z,11.40
2023-02-28T00:25:20.558Z,11.23
2023-02-28T00:27:44.405Z,16.43
2023-02-28T00:30:16.873Z,13.37
2023-02-28T00:32:40.608Z,16.80
2023-02-28T00:35:05.845Z,11.90
2023-02-28T00:37:29.224Z,11.47
2023-02-28T00:39:53.542Z,12.23
2023-02-28T00:42:16.857Z,10.97
2023-02-28T00:44:40.097Z,12.30
2023-02-28T00:47:05.341Z,10.97
2023-02-28T00:49:29.970Z,12.23
2023-02-28T00:51:53.244Z,9.13
2023-02-28T00:54:16.531Z,8.37
2023-02-28T00:56:40.155Z,10.37
2023-02-28T00:59:03.418Z,9.83
2023-02-28T01:01:26.982Z,8.23
2023-02-28T01:03:51.935Z,8.97
2023-02-28T01:06:15.236Z,8.23
2023-02-28T01:08:38.489Z,7.43
2023-02-28T01:11:10.889Z,8.93
2023-02-28T01:13:36.770Z,8.60
2023-02-28T01:16:00.329Z,10.97
2023-02-28T01:18:25.676Z,9.50
2023-02-28T01:20:52.693Z,11.40
2023-02-28T01:23:16.269Z,9.93
2023-02-28T01:25:40.111Z,8.27
2023-02-28T01:28:03.538Z,11.00
2023-02-28T01:30:26.780Z,7.80
2023-02-28T01:32:51.137Z,9.70
2023-02-28T01:35:15.543Z,10.83
2023-02-28T01:37:40.215Z,11.30
2023-02-28T01:40:03.539Z,9.40
2023-02-28T01:42:26.776Z,10.40
2023-02-28T01:45:20.093Z,9.87
2023-02-28T01:47:45.766Z,9.43
2023-02-28T01:50:16.748Z,12.43
2023-02-28T01:52:41.821Z,8.80
2023-02-28T01:55:08.236Z,10.77
2023-02-28T01:57:38.758Z,8.17
2023-02-28T02:00:08.398Z,9.90
2023-02-28T02:02:37.316Z,11.67
2023-02-28T02:05:09.933Z,9.47
2023-02-28T02:07:36.991Z,8.07
2023-02-28T02:10:07.681Z,9.23
2023-02-28T02:12:58.158Z,8.60
2023-02-28T02:15:28.996Z,10.93
2023-02-28T02:17:58.409Z,13.30
2023-02-28T02:20:52.784Z,9.60
2023-02-28T02:23:35.622Z,7.23
2023-02-28T02:26:24.658Z,8.23
2023-02-28T02:29:31.839Z,10.70
2023-02-28T02:32:34.945Z,10.90
2023-02-28T02:35:08.422Z,9.90
2023-02-28T02:37:40.684Z,10.73
2023-02-28T02:40:13.478Z,9.60
2023-02-28T02:42:46.493Z,10.37
2023-02-28T02:45:14.029Z,8.47
2023-02-28T02:47:39.554Z,8.83
2023-02-28T02:50:09.724Z,7.50
2023-02-28T02:52:39.524Z,9.33
2023-02-28T02:55:06.153Z,9.33
2023-02-28T02:57:36.018Z,8.53
2023-02-28T03:00:01.148Z,7.23
2023-02-28T03:02:27.034Z,8.13
2023-02-28T03:04:55.388Z,9.80
2023-02-28T03:07:20.109Z,9.77
2023-02-28T03:09:51.991Z,9.47
2023-02-28T03:12:15.467Z,8.37
2023-02-28T03:14:52.612Z,13.33
2023-02-28T03:17:42.351Z,10.47
2023-02-28T03:20:19.099Z,8.43
2023-02-28T03:22:54.810Z,12.17
2023-02-28T03:25:27.589Z,10.13
2023-02-28T03:28:03.545Z,6.63
2023-02-28T03:30:36.060Z,8.53
2023-02-28T03:33:03.274Z,8.90
2023-02-28T03:35:32.109Z,7.77
2023-02-28T03:38:08.905Z,10.07
2023-02-28T03:40:35.585Z,7.80
2023-02-28T03:43:03.761Z,7.00
2023-02-28T03:45:31.232Z,10.57
2023-02-28T03:47:58.645Z,8.17
2023-02-28T03:50:26.645Z,10.17
2023-02-28T03:52:53.693Z,7.37
2023-02-28T03:55:20.069Z,8.23
2023-02-28T03:57:51.680Z,6.87
2023-02-28T04:00:21.521Z,9.40
2023-02-28T04:02:44.866Z,7.30
2023-02-28T04:05:09.622Z,7.43
2023-02-28T04:07:33.463Z,6.90
2023-02-28T04:09:56.805Z,9.47
2023-02-28T04:12:24.014Z,6.07
2023-02-28T04:14:47.278Z,8.03
2023-02-28T04:17:10.524Z,7.83
2023-02-28T04:19:33.756Z,5.57
2023-02-28T04:21:57.449Z,6.77
2023-02-28T04:24:23.286Z,5.50
2023-02-28T04:26:48.663Z,7.40
2023-02-28T04:29:15.403Z,5.67
2023-02-28T04:31:38.901Z,7.90
2023-02-28T04:34:02.685Z,6.97
2023-02-28T04:36:26.328Z,9.07
2023-02-28T04:38:49.596Z,5.93
2023-02-28T04:41:12.878Z,7.13
2023-02-28T04:43:36.165Z,7.53
2023-02-28T04:46:04.841Z,7.20
2023-02-28T04:48:31.909Z,8.53
2023-02-28T04:50:55.203Z,5.83
2023-02-28T04:53:18.584Z,6.20
2023-02-28T04:55:42.122Z,6.47
2023-02-28T04:58:05.483Z,9.63
2023-02-28T05:00:28.956Z,7.40
2023-02-28T05:02:53.619Z,10.13
2023-02-28T05:05:19.081Z,10.47
2023-02-28T05:07:42.361Z,10.00
2023-02-28T05:10:06.606Z,5.27
2023-02-28T05:12:30.098Z,8.87
2023-02-28T05:14:53.558Z,9.53
2023-02-28T05:17:16.811Z,8.33
2023-02-28T05:19:41.532Z,10.90
2023-02-28T05:22:04.848Z,8.07
2023-02-28T05:24:28.141Z,5.80
2023-02-28T05:26:55.547Z,5.40
2023-02-28T05:29:18.880Z,9.70
2023-02-28T05:31:42.567Z,7.37
2023-02-28T05:34:06.316Z,8.60
2023-02-28T05:36:31.047Z,8.00
2023-02-28T05:38:54.621Z,6.10
2023-02-28T05:41:20.284Z,9.03
2023-02-28T05:43:43.779Z,7.73
2023-02-28T05:46:09.237Z,7.80
2023-02-28T05:48:32.556Z,8.43
2023-02-28T05:50:55.983Z,5.40
2023-02-28T05:53:20.634Z,7.47
2023-02-28T05:55:43.965Z,9.27
2023-02-28T05:58:07.236Z,5.97
2023-02-28T06:00:30.562Z,5.63
2023-02-28T06:02:57.213Z,6.17
2023-02-28T06:05:20.551Z,8.57
2023-02-28T06:07:44.155Z,7.03
2023-02-28T06:10:11.441Z,7.70
2023-02-28T06:12:34.918Z,6.70
2023-02-28T06:14:58.318Z,9.10
2023-02-28T06:17:21.805Z,6.27
2023-02-28T06:19:45.102Z,7.67
2023-02-28T06:22:08.451Z,8.10
2023-02-28T06:24:32.290Z,12.03
2023-02-28T06:26:57.078Z,6.87
2023-02-28T06:29:20.541Z,9.70
2023-02-28T06:31:44.946Z,10.43
2023-02-28T06:34:08.471Z,8.03
2023-02-28T06:36:31.784Z,7.50
2023-02-28T06:38:56.591Z,7.77
2023-02-28T06:41:20.207Z,6.70
2023-02-28T06:43:46.109Z,7.40
2023-02-28T06:46:13.218Z,7.17
2023-02-28T06:48:37.478Z,11.73
2023-02-28T06:51:10.789Z,7.23
2023-02-28T06:53:34.201Z,8.90
2023-02-28T06:55:57.434Z,7.67
2023-02-28T06:58:21.417Z,7.17
2023-02-28T07:00:47.494Z,8.67
2023-02-28T07:03:10.809Z,9.03
2023-02-28T07:05:34.221Z,8.67
2023-02-28T07:07:58.048Z,12.80
2023-02-28T07:10:21.426Z,13.70
2023-02-28T07:12:45.403Z,10.87
2023-02-28T07:15:10.560Z,11.50
2023-02-28T07:17:35.222Z,11.27
2023-02-28T07:19:58.511Z,9.10
2023-02-28T07:22:22.143Z,7.73
2023-02-28T07:24:45.413Z,10.27
2023-02-28T07:27:08.749Z,8.73
2023-02-28T07:29:32.630Z,9.07
2023-02-28T07:31:56.011Z,8.70
2023-02-28T07:34:20.973Z,8.13
2023-02-28T07:36:44.387Z,10.90
2023-02-28T07:39:07.742Z,13.43
2023-02-28T07:41:31.381Z,6.53
2023-02-28T07:43:56.571Z,8.27
2023-02-28T07:46:22.182Z,10.57
2023-02-28T07:48:46.519Z,7.13
2023-02-28T07:51:11.185Z,7.37
2023-02-28T07:53:34.956Z,6.50
2023-02-28T07:55:59.152Z,8.47
2023-02-28T07:58:22.341Z,7.33
2023-02-28T08:00:45.774Z,9.17
2023-02-28T08:03:10.805Z,9.13
2023-02-28T08:05:34.131Z,9.63
2023-02-28T08:07:59.396Z,9.43
2023-02-28T08:10:22.830Z,10.17
2023-02-28T08:12:46.137Z,7.10
2023-02-28T08:15:11.272Z,5.37
2023-02-28T08:17:35.534Z,6.37
2023-02-28T08:19:58.910Z,5.70
2023-02-28T08:22:22.259Z,6.37
2023-02-28T08:24:47.180Z,5.40
2023-02-28T08:27:10.537Z,6.63
2023-02-28T08:29:33.862Z,4.80
2023-02-28T08:31:57.934Z,7.03
2023-02-28T08:34:21.290Z,5.73
2023-02-28T08:36:45.891Z,8.10
2023-02-28T08:39:10.032Z,9.43
2023-02-28T08:41:35.179Z,15.02
2023-02-28T08:43:58.479Z,5.30
2023-02-28T08:46:22.361Z,5.80
2023-02-28T08:48:46.230Z,4.87
2023-02-28T08:51:12.057Z,4.03
2023-02-28T08:53:35.484Z,2.83
2023-02-28T08:56:00.643Z,6.10
2023-02-28T08:58:25.500Z,5.93
2023-02-28T09:00:48.781Z,7.93
2023-02-28T09:03:12.165Z,4.32
2023-02-28T09:05:35.395Z,5.10
2023-02-28T09:07:58.686Z,4.28
2023-02-28T09:10:22.137Z,5.60
2023-02-28T09:12:47.581Z,5.33
2023-02-28T09:15:13.203Z,6.70
2023-02-28T09:17:36.534Z,4.88
2023-02-28T09:20:00.212Z,2.42
2023-02-28T09:22:23.522Z,3.75
2023-02-28T09:24:46.811Z,6.35
2023-02-28T09:27:10.404Z,5.35
2023-02-28T09:29:34.782Z,3.25
2023-02-28T09:31:59.923Z,2.85
2023-02-28T09:34:23.341Z,3.03
2023-02-28T09:36:47.206Z,3.75
2023-02-28T09:39:11.258Z,6.32
2023-02-28T09:41:48.371Z,4.22
2023-02-28T09:44:20.315Z,3.80
2023-02-28T09:46:47.442Z,4.60
2023-02-28T09:49:18.071Z,3.10
2023-02-28T09:51:51.958Z,4.68
2023-02-28T09:54:20.791Z,5.70
2023-02-28T09:56:45.671Z,4.57
2023-02-28T09:59:22.736Z,3.88
2023-02-28T10:01:56.996Z,6.75
2023-02-28T10:04:39.125Z,4.57
2023-02-28T10:07:08.566Z,6.32
2023-02-28T10:09:35.006Z,3.33
2023-02-28T10:12:06.358Z,7.28
2023-02-28T10:14:32.417Z,7.28
2023-02-28T10:17:00.595Z,5.30
2023-02-28T10:19:34.441Z,4.18
2023-02-28T10:22:01.486Z,3.10
2023-02-28T10:24:31.364Z,5.00
2023-02-28T10:27:00.825Z,6.35
2023-02-28T10:29:24.227Z,4.72
2023-02-28T10:31:47.575Z,2.63
2023-02-28T10:34:14.837Z,4.53
2023-02-28T10:36:39.497Z,3.03
2023-02-28T10:39:02.810Z,9.07
2023-02-28T10:41:35.612Z,7.85
2023-02-28T10:44:17.652Z,3.25
2023-02-28T10:46:42.611Z,2.70
2023-02-28T10:49:08.539Z,2.33
2023-02-28T10:51:40.646Z,3.33
2023-02-28T10:54:06.591Z,3.80
2023-02-28T10:56:30.892Z,7.60
2023-02-28T10:58:58.187Z,3.28
2023-02-28T11:01:24.966Z,3.78
2023-02-28T11:03:48.916Z,3.15
2023-02-28T11:06:19.321Z,4.43
2023-02-28T11:08:50.610Z,3.38
2023-02-28T11:11:13.967Z,6.13
2023-02-28T11:13:39.481Z,5.07
2023-02-28T11:16:07.329Z,8.88
2023-02-28T11:18:40.013Z,4.90
2023-02-28T11:21:05.386Z,5.22
2023-02-28T11:23:32.231Z,6.43
2023-02-28T11:26:00.651Z,5.07
2023-02-28T11:28:32.137Z,4.57
2023-02-28T11:31:06.465Z,4.40
2023-02-28T11:33:32.470Z,4.80
2023-02-28T11:36:01.849Z,7.57
2023-02-28T11:38:25.202Z,5.20
2023-02-28T11:41:07.678Z,5.85
2023-02-28T11:43:51.528Z,6.00
2023-02-28T11:46:30.952Z,4.68
2023-02-28T11:49:04.758Z,2.35
2023-02-28T11:51:35.885Z,4.30
2023-02-28T11:54:37.867Z,4.47
2023-02-28T11:57:16.456Z,4.43
2023-02-28T11:59:57.960Z,4.43
2023-02-28T12:02:35.269Z,3.90
2023-02-28T12:05:24.223Z,5.60
2023-02-28T12:08:00.728Z,6.57
2023-02-28T12:10:27.724Z,4.57
2023-02-28T12:13:06.863Z,6.20
2023-02-28T12:15:56.431Z,6.85
2023-02-28T12:18:42.082Z,5.40
2023-02-28T12:21:19.306Z,8.15
2023-02-28T12:24:20.198Z,4.15
2023-02-28T12:26:45.746Z,2.90
2023-02-28T12:29:20.461Z,5.68
2023-02-28T12:31:50.556Z,7.53
2023-02-28T12:34:18.775Z,4.97
2023-02-28T12:36:46.327Z,4.40
2023-02-28T12:39:15.369Z,6.55
2023-02-28T12:41:44.844Z,5.70
2023-02-28T12:44:15.730Z,4.72
2023-02-28T12:46:43.753Z,2.92
2023-02-28T12:49:13.181Z,8.10
2023-02-28T12:51:38.312Z,5.90
2023-02-28T12:54:13.138Z,5.00
2023-02-28T12:56:45.652Z,6.80
2023-02-28T12:59:23.153Z,3.55
2023-02-28T13:02:47.530Z,4.75
2023-02-28T13:05:34.134Z,7.20
2023-02-28T13:08:26.366Z,2.97
2023-02-28T13:10:55.435Z,5.70
2023-02-28T13:13:22.018Z,2.38
2023-02-28T13:16:05.559Z,5.45
2023-02-28T13:18:34.696Z,3.50
2023-02-28T13:20:58.124Z,3.38
2023-02-28T13:23:59.571Z,3.13
2023-02-28T13:26:23.015Z,3.90
2023-02-28T13:29:31.392Z,4.30
2023-02-28T13:32:38.358Z,3.67
2023-02-28T13:35:38.436Z,4.43
2023-02-28T13:38:41.746Z,4.30
2023-02-28T13:41:46.319Z,3.65
2023-02-28T13:44:11.621Z,2.80
2023-02-28T13:46:37.949Z,4.45
2023-02-28T13:49:27.558Z,3.88
2023-02-28T13:51:52.111Z,4.18
2023-02-28T13:54:37.689Z,4.78
2023-02-28T13:57:17.158Z,5.95
2023-02-28T13:59:51.436Z,4.28
2023-02-28T14:02:44.564Z,6.68
2023-02-28T14:05:16.690Z,3.53
2023-02-28T14:07:47.994Z,7.05
2023-02-28T14:10:27.656Z,4.03
2023-02-28T14:13:01.537Z,8.18
2023-02-28T14:15:57.650Z,3.72
2023-02-28T14:18:30.361Z,5.93
2023-02-28T14:21:03.141Z,8.00
2023-02-28T14:23:46.228Z,5.43
2023-02-28T14:26:28.020Z,6.47
2023-02-28T14:29:11.667Z,5.00
2023-02-28T14:31:39.531Z,4.10
2023-02-28T14:34:23.151Z,9.02
2023-02-28T14:36:48.165Z,6.18
2023-02-28T14:39:16.667Z,7.55
2023-02-28T14:41:42.997Z,7.15
2023-02-28T14:44:18.541Z,4.82
2023-02-28T14:46:43.973Z,4.93
2023-02-28T14:49:09.175Z,4.57
2023-02-28T14:51:33.835Z,6.22
2023-02-28T14:54:03.240Z,5.47
2023-02-28T14:56:32.060Z,4.15
2023-02-28T14:58:58.109Z,5.18
2023-02-28T15:01:23.627Z,5.95
2023-02-28T15:03:48.268Z,5.50
2023-02-28T15:06:18.399Z,4.80
2023-02-28T15:08:41.867Z,4.25
2023-02-28T15:11:09.887Z,6.38
2023-02-28T15:13:41.098Z,6.38
2023-02-28T15:16:07.276Z,4.32
2023-02-28T15:18:41.835Z,5.97
2023-02-28T15:21:09.161Z,4.50
2023-02-28T15:23:33.816Z,3.50
2023-02-28T15:25:57.462Z,3.90
2023-02-28T15:28:24.783Z,4.72
2023-02-28T15:31:01.950Z,3.55
2023-02-28T15:33:27.357Z,3.70
2023-02-28T15:35:51.587Z,6.28
2023-02-28T15:38:21.021Z,5.65
2023-02-28T15:40:46.466Z,3.72
2023-02-28T15:43:17.600Z,5.43
2023-02-28T15:45:48.044Z,4.00
2023-02-28T15:48:21.023Z,4.15
2023-02-28T15:50:46.003Z,4.18
2023-02-28T15:53:16.504Z,4.55
2023-02-28T15:55:40.788Z,4.35
2023-02-28T15:58:06.123Z,5.55
2023-02-28T16:00:33.721Z,5.53
2023-02-28T16:02:58.578Z,5.40
2023-02-28T16:05:33.236Z,6.28
2023-02-28T16:07:57.569Z,4.43
2023-02-28T16:10:21.422Z,4.15
2023-02-28T16:12:44.817Z,5.10
2023-02-28T16:15:19.528Z,6.07
2023-02-28T16:17:42.953Z,7.55
2023-02-28T16:20:16.555Z,6.15
2023-02-28T16:22:40.118Z,5.40
2023-02-28T16:25:05.207Z,4.72
2023-02-28T16:27:34.245Z,5.65
2023-02-28T16:29:57.551Z,4.47
2023-02-28T16:32:20.966Z,6.88
2023-02-28T16:34:45.184Z,4.85
2023-02-28T16:37:15.061Z,4.00
2023-02-28T16:39:38.505Z,3.05
2023-02-28T16:42:01.743Z,4.88
2023-02-28T16:44:30.645Z,6.55
2023-02-28T16:46:53.903Z,4.32
2023-02-28T16:49:17.240Z,6.90
2023-02-28T16:51:40.748Z,6.10
2023-02-28T16:54:05.782Z,6.68
2023-02-28T16:56:29.160Z,4.90
2023-02-28T16:58:53.770Z,3.30
2023-02-28T17:01:18.128Z,4.32
2023-02-28T17:03:43.146Z,4.45
2023-02-28T17:06:07.325Z,4.60
2023-02-28T17:08:32.899Z,4.40
2023-02-28T17:10:57.687Z,8.93
2023-02-28T17:13:20.962Z,7.78
2023-02-28T17:15:47.281Z,5.78
2023-02-28T17:18:16.298Z,7.10
2023-02-28T17:20:39.661Z,6.80
2023-02-28T17:23:03.499Z,5.72
2023-02-28T17:25:27.154Z,4.30
2023-02-28T17:27:52.387Z,4.53
2023-02-28T17:30:18.742Z,6.88
2023-02-28T17:32:42.115Z,5.65
2023-02-28T17:35:06.084Z,4.20
2023-02-28T17:37:29.413Z,6.75
2023-02-28T17:39:52.658Z,5.78
2023-02-28T17:42:15.949Z,4.85
2023-02-28T17:44:40.964Z,5.32
2023-02-28T17:47:04.383Z,4.38
2023-02-28T17:49:28.101Z,5.47
2023-02-28T17:51:51.526Z,5.18
2023-02-28T17:54:18.295Z,7.05
2023-02-28T17:56:43.928Z,4.68
2023-02-28T17:59:07.237Z,4.38
2023-02-28T18:01:31.897Z,6.57
2023-02-28T18:03:56.068Z,6.05
2023-02-28T18:06:23.614Z,4.03
2023-02-28T18:08:47.105Z,7.32
2023-02-28T18:11:17.967Z,7.22
2023-02-28T18:13:41.351Z,6.30
2023-02-28T18:16:05.008Z,5.65
2023-02-28T18:18:29.690Z,7.82
2023-02-28T18:20:54.155Z,8.07
2023-02-28T18:23:18.241Z,6.30
2023-02-28T18:25:41.716Z,10.63
2023-02-28T18:28:05.641Z,6.90
2023-02-28T18:30:31.945Z,6.68
2023-02-28T18:32:55.268Z,6.72
2023-02-28T18:35:34.831Z,9.32
2023-02-28T18:37:58.287Z,9.27
2023-02-28T18:40:22.015Z,8.23
2023-02-28T18:42:45.583Z,8.73
2023-02-28T18:45:10.940Z,6.25
2023-02-28T18:47:36.667Z,9.82
2023-02-28T18:50:00.945Z,8.13
2023-02-28T18:52:26.601Z,8.35
2023-02-28T18:54:50.470Z,7.88
2023-02-28T18:57:14.042Z,7.70
2023-02-28T18:59:37.462Z,8.23
2023-02-28T19:02:00.817Z,8.93
2023-02-28T19:04:24.185Z,11.18
2023-02-28T19:06:47.641Z,7.45
2023-02-28T19:09:12.676Z,7.30
2023-02-28T19:11:36.899Z,8.07
2023-02-28T19:14:00.582Z,10.75
2023-02-28T19:16:24.449Z,7.78
2023-02-28T19:18:48.113Z,5.43
2023-02-28T19:21:13.713Z,8.57
2023-02-28T19:23:37.794Z,7.75
2023-02-28T19:26:07.185Z,13.82
2023-02-28T19:28:31.244Z,10.98
2023-02-28T19:30:54.575Z,11.02
2023-02-28T19:33:18.272Z,6.75
2023-02-28T19:35:42.398Z,8.60
2023-02-28T19:38:05.801Z,7.63
2023-02-28T19:40:29.254Z,8.50
2023-02-28T19:42:54.168Z,7.38
2023-02-28T19:45:17.672Z,6.65
2023-02-28T19:47:41.260Z,9.23
2023-02-28T19:50:06.389Z,12.73
2023-02-28T19:52:29.736Z,10.07
2023-02-28T19:54:53.212Z,11.02
2023-02-28T19:57:16.774Z,10.77
2023-02-28T19:59:41.434Z,8.40
2023-02-28T20:02:04.789Z,11.13
2023-02-28T20:04:28.954Z,12.93
2023-02-28T20:06:52.537Z,11.02
2023-02-28T20:09:16.582Z,14.82
2023-02-28T20:11:39.829Z,12.93
2023-02-28T20:14:05.359Z,11.45
2023-02-28T20:16:31.332Z,13.23
2023-02-28T20:18:54.776Z,10.60
2023-02-28T20:21:19.033Z,10.20
2023-02-28T20:23:43.258Z,11.10
2023-02-28T20:26:07.023Z,11.60
2023-02-28T20:28:30.619Z,13.32
2023-02-28T20:30:53.958Z,12.18
2023-02-28T20:33:20.000Z,10.80
2023-02-28T20:35:43.478Z,11.45
2023-02-28T20:38:06.920Z,10.65
2023-02-28T20:40:30.186Z,10.18
2023-02-28T20:42:53.490Z,8.95
2023-02-28T20:45:17.609Z,10.23
2023-02-28T20:47:42.481Z,11.98
2023-02-28T20:50:09.708Z,12.30
2023-02-28T20:52:33.283Z,9.27
2023-02-28T20:54:57.033Z,7.45
2023-02-28T20:57:20.472Z,9.18
2023-02-28T20:59:43.749Z,12.85
2023-02-28T21:02:07.331Z,9.57
2023-02-28T21:04:30.848Z,10.20
2023-02-28T21:06:55.451Z,9.00
2023-02-28T21:09:19.312Z,14.45
2023-02-28T21:11:43.149Z,9.75
2023-02-28T21:14:09.637Z,8.55
2023-02-28T21:16:36.538Z,8.73
2023-02-28T21:19:04.710Z,7.68
2023-02-28T21:21:28.032Z,8.85
2023-02-28T21:23:53.465Z,8.90
2023-02-28T21:26:19.675Z,13.43
2023-02-28T21:28:44.146Z,9.93
2023-02-28T21:31:10.192Z,9.73
2023-02-28T21:33:34.243Z,9.43
2023-02-28T21:36:03.923Z,9.77
2023-02-28T21:38:27.238Z,11.15
2023-02-28T21:40:52.298Z,8.90
2023-02-28T21:43:15.751Z,10.43
2023-02-28T21:45:39.132Z,8.80
2023-02-28T21:48:02.661Z,10.45
2023-02-28T21:50:26.054Z,9.65
2023-02-28T21:52:49.347Z,11.15
2023-02-28T21:55:12.606Z,9.23
2023-02-28T21:57:37.274Z,11.88
2023-02-28T22:00:00.688Z,9.00
2023-02-28T22:02:24.005Z,9.05
2023-02-28T22:04:47.326Z,9.65
2023-02-28T22:07:10.734Z,10.88
2023-02-28T22:09:34.045Z,8.75
2023-02-28T22:11:59.034Z,9.73
2023-02-28T22:14:23.740Z,11.40
2023-02-28T22:16:51.687Z,10.95
2023-02-28T22:19:16.032Z,10.33
2023-02-28T22:21:41.632Z,10.25
2023-02-28T22:24:06.937Z,11.52
2023-02-28T22:26:30.997Z,9.13
2023-02-28T22:28:55.166Z,13.20
2023-02-28T22:31:23.409Z,9.17
2023-02-28T22:33:48.406Z,8.88
2023-02-28T22:36:14.720Z,9.70
2023-02-28T22:38:38.092Z,10.80
2023-02-28T22:41:01.391Z,9.33
2023-02-28T22:43:24.654Z,8.98
2023-02-28T22:45:48.335Z,11.60
2023-02-28T22:48:13.346Z,9.82
2023-02-28T22:50:37.188Z,10.27
2023-02-28T22:53:00.601Z,10.00
2023-02-28T22:55:24.306Z,12.03
2023-02-28T22:57:47.603Z,10.43
2023-02-28T23:00:15.444Z,12.52
2023-02-28T23:02:38.726Z,10.67
2023-02-28T23:05:03.441Z,10.40
2023-02-28T23:07:26.836Z,11.15
2023-02-28T23:09:51.078Z,10.20
2023-02-28T23:12:14.323Z,11.97
2023-02-28T23:14:37.625Z,13.57
2023-02-28T23:17:00.955Z,12.13
2023-02-28T23:19:27.215Z,10.83
2023-02-28T23:21:52.205Z,10.90
2023-02-28T23:24:18.308Z,9.33
2023-02-28T23:26:44.824Z,12.50
2023-02-28T23:29:08.618Z,10.82
2023-02-28T23:31:32.288Z,10.63
2023-02-28T23:33:57.390Z,11.77
2023-02-28T23:36:21.226Z,10.60
2023-02-28T23:38:49.651Z,10.93
2023-02-28T23:41:15.061Z,13.30
2023-02-28T23:43:40.524Z,10.90
2023-02-28T23:46:05.115Z,15.20
2023-02-28T23:48:28.679Z,11.60
2023-02-28T23:50:52.005Z,10.87
2023-02-28T23:53:15.336Z,11.52
2023-02-28T23:55:40.048Z,10.63
2023-02-28T23:58:03.246Z,12.07
